createdAt,value
2023-01-10T12:29:35.740Z,0.00
2023-01-10T12:32:07.587Z,0.00
2023-01-10T12:34:45.816Z,0.00
2023-01-10T12:37:19.219Z,0.00
2023-01-10T12:39:52.033Z,0.00
2023-01-10T12:42:57.123Z,0.00
2023-01-10T12:45:29.705Z,0.00
2023-01-10T12:48:25.264Z,0.00
2023-01-10T12:51:05.238Z,0.00
2023-01-10T12:53:54.231Z,0.00
2023-01-10T12:56:21.506Z,0.00
2023-01-10T12:58:51.060Z,0.00
2023-01-10T13:01:32.371Z,0.00
2023-01-10T13:04:07.085Z,0.03
2023-01-10T13:06:35.255Z,0.73
2023-01-10T13:09:23.677Z,0.20
2023-01-10T13:11:58.667Z,0.10
2023-01-10T13:14:35.702Z,0.30
2023-01-10T13:18:00.180Z,0.73
2023-01-10T13:20:38.065Z,0.28
2023-01-10T13:23:20.995Z,0.80
2023-01-10T13:25:55.946Z,0.40
2023-01-10T13:28:29.789Z,1.08
2023-01-10T13:30:58.996Z,0.22
2023-01-10T13:34:14.179Z,0.77
2023-01-10T13:36:53.753Z,0.60
2023-01-10T13:39:29.922Z,1.25
2023-01-10T13:42:18.122Z,0.47
2023-01-10T13:45:09.976Z,0.40
2023-01-10T13:47:40.207Z,0.95
2023-01-10T13:50:25.689Z,1.02
2023-01-10T13:53:02.260Z,0.93
2023-01-10T13:55:53.661Z,1.38
2023-01-10T13:58:42.225Z,2.00
2023-01-10T14:01:55.693Z,1.85
2023-01-10T14:04:28.819Z,2.80
2023-01-10T14:06:57.589Z,2.08
2023-01-10T14:09:24.728Z,1.42
2023-01-10T14:12:03.899Z,1.75
2023-01-10T14:14:37.777Z,1.30
2023-01-10T14:17:19.238Z,2.88
2023-01-10T14:19:49.631Z,1.63
2023-01-10T14:22:29.320Z,1.30
2023-01-10T14:24:56.364Z,1.98
2023-01-10T14:27:24.575Z,1.75
2023-01-10T14:29:55.048Z,1.80
2023-01-10T14:32:38.176Z,2.60
2023-01-10T14:35:07.559Z,2.10
2023-01-10T14:37:40.457Z,1.17
2023-01-10T14:40:19.197Z,2.65
2023-01-10T14:42:47.257Z,1.77
2023-01-10T14:45:41.973Z,1.85
2023-01-10T14:48:29.228Z,0.80
2023-01-10T14:51:18.303Z,1.48
2023-01-10T14:53:45.341Z,0.93
2023-01-10T14:56:20.243Z,2.28
2023-01-10T14:58:49.489Z,1.75
2023-01-10T15:01:25.544Z,1.27
2023-01-10T15:06:20.024Z,1.17
2023-01-10T15:08:54.797Z,0.30
2023-01-10T15:11:21.916Z,0.40
2023-01-10T15:13:59.883Z,0.70
2023-01-10T15:16:28.091Z,0.50
2023-01-10T15:18:56.724Z,2.42
2023-01-10T15:21:25.924Z,0.50
2023-01-10T15:23:53.133Z,0.50
2023-01-10T15:26:49.844Z,0.60
2023-01-10T15:29:21.103Z,0.80
2023-01-10T15:31:48.331Z,0.63
2023-01-10T15:34:19.935Z,1.02
2023-01-10T15:36:50.265Z,1.20
2023-01-10T15:39:25.467Z,0.68
2023-01-10T15:41:56.877Z,0.73
2023-01-10T15:44:54.410Z,0.52
2023-01-10T15:50:22.199Z,0.60
2023-01-10T15:52:54.304Z,1.77
2023-01-10T15:55:40.354Z,1.02
2023-01-10T15:58:29.521Z,0.52
2023-01-10T16:00:57.439Z,1.23
2023-01-10T16:03:36.035Z,0.98
2023-01-10T16:06:04.876Z,1.13
2023-01-10T16:08:32.897Z,0.77
2023-01-10T16:11:01.397Z,0.63
2023-01-10T16:13:28.800Z,0.95
2023-01-10T16:16:01.699Z,1.27
2023-01-10T16:18:30.771Z,0.68
2023-01-10T16:21:01.057Z,0.73
2023-01-10T16:23:41.702Z,1.77
2023-01-10T16:26:21.583Z,0.75
2023-01-10T16:29:11.964Z,2.35
2023-01-10T16:31:40.979Z,1.50
2023-01-10T16:34:08.587Z,1.33
2023-01-10T16:36:36.853Z,1.60
2023-01-10T16:39:11.799Z,1.48
2023-01-10T16:41:59.496Z,0.75
2023-01-10T16:44:29.090Z,1.00
2023-01-10T16:46:59.844Z,1.38
2023-01-10T16:49:27.417Z,1.55
2023-01-10T16:51:58.336Z,1.45
2023-01-10T16:54:27.306Z,1.63
2023-01-10T16:56:58.258Z,1.45
2023-01-10T16:59:25.298Z,0.85
2023-01-10T17:01:56.122Z,0.80
2023-01-10T17:04:28.308Z,1.40
2023-01-10T17:06:59.774Z,0.73
2023-01-10T17:09:30.813Z,1.35
2023-01-10T17:12:05.667Z,0.40
2023-01-10T17:14:34.422Z,0.63
2023-01-10T17:17:04.776Z,1.38
2023-01-10T17:19:33.423Z,0.52
2023-01-10T17:22:04.808Z,1.05
2023-01-10T17:24:34.378Z,0.30
2023-01-10T17:27:02.218Z,0.55
2023-01-10T17:29:31.682Z,0.15
2023-01-10T17:31:58.910Z,1.08
2023-01-10T17:34:29.975Z,0.25
2023-01-10T17:36:57.174Z,0.52
2023-01-10T17:39:24.347Z,0.20
2023-01-10T17:41:52.072Z,0.22
2023-01-10T17:44:19.108Z,0.10
2023-01-10T17:47:12.846Z,0.38
2023-01-10T17:49:44.146Z,0.20
2023-01-10T17:52:11.401Z,0.10
2023-01-10T17:54:39.024Z,0.30
2023-01-10T17:57:08.410Z,0.10
2023-01-10T17:59:36.754Z,0.20
2023-01-10T18:02:04.073Z,0.45
2023-01-10T18:04:32.530Z,0.10
2023-01-10T18:07:25.633Z,0.32
2023-01-10T18:09:52.922Z,0.10
2023-01-10T18:12:19.868Z,0.10
2023-01-10T18:14:46.930Z,0.20
2023-01-10T18:17:14.148Z,0.00
2023-01-10T18:19:41.578Z,0.00
2023-01-10T18:22:57.175Z,0.13
2023-01-10T18:25:24.735Z,0.10
2023-01-10T18:27:52.850Z,0.00
2023-01-10T18:30:22.150Z,0.00
2023-01-10T18:32:50.245Z,0.00
2023-01-10T18:35:18.477Z,0.00
2023-01-10T18:37:46.230Z,0.00
2023-01-10T18:40:13.901Z,0.00
2023-01-10T18:42:41.164Z,0.00
2023-01-10T18:45:10.906Z,0.10
2023-01-10T18:47:38.230Z,0.00
2023-01-10T18:50:31.948Z,0.00
2023-01-10T18:52:59.761Z,0.00
2023-01-10T18:55:28.448Z,0.00
2023-01-10T18:57:55.479Z,0.10
2023-01-10T19:00:22.759Z,0.00
2023-01-10T19:02:50.098Z,0.00
2023-01-10T19:05:17.567Z,0.10
2023-01-10T19:07:44.669Z,0.20
2023-01-10T19:10:14.122Z,0.28
2023-01-10T19:12:42.886Z,0.00
2023-01-10T19:15:10.592Z,0.10
2023-01-10T19:17:37.802Z,0.00
2023-01-10T19:20:05.346Z,0.15
2023-01-10T19:22:33.038Z,0.00
2023-01-10T19:25:00.157Z,0.00
2023-01-10T19:27:28.763Z,0.00
2023-01-10T19:29:56.568Z,0.20
2023-01-10T19:32:26.427Z,0.17
2023-01-10T19:34:53.981Z,0.70
2023-01-10T19:37:21.198Z,0.10
2023-01-10T19:39:49.099Z,0.47
2023-01-10T19:42:16.504Z,0.50
2023-01-10T19:44:43.903Z,0.57
2023-01-10T19:47:16.169Z,0.10
2023-01-10T19:49:43.305Z,2.40
2023-01-10T19:52:11.919Z,0.20
2023-01-10T19:54:39.377Z,0.10
2023-01-10T19:57:07.904Z,0.10
2023-01-10T19:59:36.158Z,0.10
2023-01-10T20:02:05.141Z,0.28
2023-01-10T20:04:35.245Z,0.10
2023-01-10T20:07:02.460Z,0.38
2023-01-10T20:09:33.507Z,0.00
2023-01-10T20:12:01.000Z,0.00
2023-01-10T20:14:28.412Z,0.00
2023-01-10T20:16:57.217Z,0.00
2023-01-10T20:19:26.373Z,0.00
2023-01-10T20:21:56.933Z,0.00
2023-01-10T20:24:24.183Z,0.00
2023-01-10T20:26:51.381Z,0.00
2023-01-10T20:29:20.054Z,0.00
2023-01-10T20:31:49.741Z,0.15
2023-01-10T20:34:17.244Z,0.00
2023-01-10T20:36:47.576Z,0.00
2023-01-10T20:39:18.912Z,0.00
2023-01-10T20:41:49.388Z,0.20
2023-01-10T20:44:19.353Z,0.00
2023-01-10T20:46:49.722Z,0.00
2023-01-10T20:49:17.165Z,0.00
2023-01-10T20:51:45.269Z,0.00
2023-01-10T20:54:12.441Z,0.00
2023-01-10T20:56:40.523Z,0.00
2023-01-10T20:59:09.710Z,0.00
2023-01-10T21:01:36.811Z,0.00
2023-01-10T21:04:05.252Z,0.00
2023-01-10T21:06:32.436Z,0.20
2023-01-10T21:09:00.795Z,0.00
2023-01-10T21:11:28.354Z,0.00
2023-01-10T21:13:55.516Z,0.00
2023-01-10T21:16:23.049Z,0.00
2023-01-10T21:18:50.719Z,0.00
2023-01-10T21:21:19.757Z,0.00
2023-01-10T21:23:46.757Z,0.00
2023-01-10T21:26:15.231Z,0.00
2023-01-10T21:28:45.921Z,0.00
2023-01-10T21:31:17.866Z,0.00
2023-01-10T21:33:45.098Z,0.00
2023-01-10T21:36:13.523Z,0.00
2023-01-10T21:39:35.430Z,0.00
2023-01-10T21:42:20.687Z,0.00
2023-01-10T21:44:48.715Z,0.00
2023-01-10T21:47:15.764Z,0.00
2023-01-10T21:49:42.762Z,0.10
2023-01-10T21:52:09.875Z,0.00
2023-01-10T21:54:37.212Z,0.30
2023-01-10T21:57:04.422Z,0.00
2023-01-10T21:59:31.540Z,0.00
2023-01-10T22:01:58.727Z,0.00
2023-01-10T22:04:26.033Z,0.05
2023-01-10T22:06:53.080Z,0.00
2023-01-10T22:09:20.932Z,0.00
2023-01-10T22:11:47.957Z,0.00
2023-01-10T22:14:15.021Z,0.10
2023-01-10T22:16:42.132Z,0.20
2023-01-10T22:19:09.542Z,0.00
2023-01-10T22:21:36.755Z,0.00
2023-01-10T22:24:04.024Z,0.10
2023-01-10T22:26:31.074Z,0.00
2023-01-10T22:28:58.107Z,0.05
2023-01-10T22:31:25.121Z,0.20
2023-01-10T22:33:52.598Z,0.10
2023-01-10T22:36:20.084Z,0.00
2023-01-10T22:38:48.268Z,0.70
2023-01-10T22:41:18.199Z,0.10
2023-01-10T22:43:45.454Z,0.10
2023-01-10T22:46:15.627Z,0.00
2023-01-10T22:48:43.319Z,0.05
2023-01-10T22:51:12.390Z,0.10
2023-01-10T22:53:40.175Z,0.00
2023-01-10T22:56:09.233Z,0.10
2023-01-10T22:58:37.266Z,0.00
2023-01-10T23:01:06.570Z,0.00
2023-01-10T23:03:37.880Z,0.00
2023-01-10T23:06:05.342Z,0.00
2023-01-10T23:08:34.639Z,0.00
2023-01-10T23:11:05.138Z,0.00
2023-01-10T23:13:33.815Z,0.00
2023-01-10T23:16:07.152Z,0.10
2023-01-10T23:18:34.373Z,0.00
2023-01-10T23:21:05.754Z,0.00
2023-01-10T23:23:36.213Z,0.00
2023-01-10T23:26:08.268Z,0.00
2023-01-10T23:28:40.955Z,0.00
2023-01-10T23:31:12.030Z,0.00
2023-01-10T23:33:39.173Z,0.00
2023-01-10T23:36:06.963Z,0.00
2023-01-10T23:38:34.349Z,0.00
2023-01-10T23:41:01.479Z,0.00
2023-01-10T23:43:28.618Z,0.32
2023-01-10T23:46:01.179Z,0.00
2023-01-10T23:48:29.492Z,0.10
2023-01-10T23:50:57.260Z,0.10
2023-01-10T23:53:24.767Z,0.00
2023-01-10T23:55:53.195Z,0.10
2023-01-10T23:58:20.361Z,0.00
